YDBY

Details ICAO YDBY (DRB)
Name Derby
Region Australia
Timezone Australia/Perth (UTC+8.0)
Plans Departing 1
Arriving 7
Stats Elevation 24 ft / 7 m (AMSL)
Location -17.371626° 123.661955°
Runways 2
Magnetic Variation 1.975° E
Sunrise 2017-12-11 21:05:54 UTC / 2017-12-12 05:05:54 Local
Sunset 2017-12-12 10:14:49 UTC / 2017-12-12 18:14:49 Local
Advertisement - Login to hide

Runways

ID Width Length Bearing (true) Bearing (mag) Surface Threshold Offset Overrun Length
05 98 ft / 30 m 3,793 ft / 1,156 m 56.00° 54.03° Unknown 0 ft / 0 m 0 ft / 0 m
11 98 ft / 30 m 5,694 ft / 1,736 m 110.50° 108.53° Asphalt 0 ft / 0 m 200 ft / 61 m
23 98 ft / 30 m 3,793 ft / 1,156 m 236.00° 234.03° Unknown 0 ft / 0 m 0 ft / 0 m
29 98 ft / 30 m 5,694 ft / 1,736 m 290.50° 288.53° Asphalt 0 ft / 0 m 299 ft / 91 m

Map

Weather


0- 5 10 15 20 25 30 35+ Temperature / ° C

Clouds and Precipitation
Forecast for 2017-12-12 06:00 UTC. Updated 2 hours ago

Ground ~20,000 ft ~40,000 ft Winds

METAR

YDBY 120500Z AUTO 23012KT 170V250 9999 // SCT078 41/19 Q1007

TAF

Not found

Frequencies

Unicom 126.70 MHz CTAF
Warning: Do not use this data for real-world aviation or navigation. No guarantee of current accuracy is given.